createdAt,value
2022-09-11T00:01:18.507Z,13.80
2022-09-11T00:03:47.157Z,13.80
2022-09-11T00:06:27.711Z,13.70
2022-09-11T00:09:01.079Z,13.70
2022-09-11T00:11:34.430Z,13.70
2022-09-11T00:14:01.988Z,13.70
2022-09-11T00:16:32.717Z,13.60
2022-09-11T00:19:05.812Z,13.60
2022-09-11T00:21:33.412Z,13.60
2022-09-11T00:24:01.368Z,13.60
2022-09-11T00:26:28.693Z,13.60
2022-09-11T00:28:56.224Z,13.60
2022-09-11T00:31:28.281Z,13.60
2022-09-11T00:33:56.224Z,13.60
2022-09-11T00:36:26.983Z,13.60
2022-09-11T00:38:54.292Z,13.50
2022-09-11T00:41:30.543Z,13.50
2022-09-11T00:44:04.816Z,13.50
2022-09-11T00:46:53.429Z,13.50
2022-09-11T00:49:32.751Z,13.50
2022-09-11T00:52:03.660Z,13.50
2022-09-11T00:54:35.260Z,13.50
2022-09-11T00:57:06.591Z,13.50
2022-09-11T00:59:35.433Z,13.50
2022-09-11T01:02:02.980Z,13.40
2022-09-11T01:04:30.348Z,13.40
2022-09-11T01:06:59.969Z,13.40
2022-09-11T01:09:29.923Z,13.40
2022-09-11T01:12:37.383Z,13.40
2022-09-11T01:15:27.713Z,13.40
2022-09-11T01:18:21.849Z,13.40
2022-09-11T01:21:31.308Z,13.30
2022-09-11T01:24:30.027Z,13.30
2022-09-11T01:27:22.140Z,13.30
2022-09-11T01:30:14.945Z,13.30
2022-09-11T01:32:42.024Z,13.30
2022-09-11T01:35:38.341Z,13.30
2022-09-11T01:38:39.337Z,13.20
2022-09-11T01:41:14.278Z,13.20
2022-09-11T01:43:56.388Z,13.20
2022-09-11T01:46:27.255Z,13.20
2022-09-11T01:49:13.084Z,13.20
2022-09-11T01:51:41.622Z,13.20
2022-09-11T01:54:17.146Z,13.10
2022-09-11T01:56:56.064Z,13.10
2022-09-11T01:59:31.229Z,13.10
2022-09-11T02:02:07.554Z,13.10
2022-09-11T02:04:46.310Z,13.10
2022-09-11T02:07:33.030Z,13.10
2022-09-11T02:10:08.272Z,13.10
2022-09-11T02:12:44.345Z,13.00
2022-09-11T02:15:15.882Z,13.00
2022-09-11T02:17:54.122Z,13.00
2022-09-11T02:20:26.939Z,13.00
2022-09-11T02:22:54.272Z,13.00
2022-09-11T02:25:24.314Z,13.00
2022-09-11T02:27:55.996Z,13.00
2022-09-11T02:30:23.661Z,13.00
2022-09-11T02:32:50.756Z,13.00
2022-09-11T02:35:18.034Z,13.00
2022-09-11T02:38:06.852Z,13.00
2022-09-11T02:40:39.086Z,12.90
2022-09-11T02:43:23.159Z,12.90
2022-09-11T02:46:19.512Z,12.90
2022-09-11T02:48:58.501Z,12.90
2022-09-11T02:51:33.669Z,12.90
2022-09-11T02:54:19.401Z,12.80
2022-09-11T02:56:55.156Z,12.80
2022-09-11T02:59:38.239Z,12.80
2022-09-11T03:02:12.843Z,12.80
2022-09-11T03:04:42.114Z,12.80
2022-09-11T03:07:09.364Z,12.70
2022-09-11T03:09:38.259Z,12.70
2022-09-11T03:12:15.489Z,12.70
2022-09-11T03:14:43.413Z,12.80
2022-09-11T03:17:10.772Z,12.80
2022-09-11T03:19:38.129Z,12.80
2022-09-11T03:22:05.319Z,12.80
2022-09-11T03:24:32.503Z,12.80
2022-09-11T03:27:01.127Z,12.80
2022-09-11T03:29:31.787Z,12.70
2022-09-11T03:32:00.642Z,12.70
2022-09-11T03:34:28.299Z,12.70
2022-09-11T03:36:55.460Z,12.60
2022-09-11T03:39:22.893Z,12.60
2022-09-11T03:41:51.685Z,12.60
2022-09-11T03:44:18.956Z,12.60
2022-09-11T03:46:47.558Z,12.60
2022-09-11T03:49:17.166Z,12.50
2022-09-11T03:51:44.629Z,12.50
2022-09-11T03:54:16.179Z,12.40
2022-09-11T03:56:44.169Z,12.40
2022-09-11T03:59:11.678Z,12.40
2022-09-11T04:01:39.569Z,12.30
2022-09-11T04:04:22.628Z,12.30
2022-09-11T04:06:50.745Z,12.30
2022-09-11T04:09:19.021Z,12.30
2022-09-11T04:11:48.764Z,12.20
2022-09-11T04:14:22.672Z,12.30
2022-09-11T04:16:50.909Z,12.30
2022-09-11T04:19:19.432Z,12.30
2022-09-11T04:21:49.960Z,12.20
2022-09-11T04:24:23.062Z,12.20
2022-09-11T04:26:50.350Z,12.20
2022-09-11T04:29:28.127Z,12.10
2022-09-11T04:31:57.858Z,12.10
2022-09-11T04:34:28.920Z,12.00
2022-09-11T04:36:57.381Z,12.00
2022-09-11T04:39:25.960Z,12.00
2022-09-11T04:42:19.310Z,12.00
2022-09-11T04:44:57.797Z,11.90
2022-09-11T04:51:09.510Z,11.90
2022-09-11T04:56:46.374Z,11.80
2022-09-11T04:59:22.845Z,11.80
2022-09-11T05:01:56.112Z,11.80
2022-09-11T05:04:26.171Z,11.80
2022-09-11T05:06:55.458Z,11.70
2022-09-11T05:09:24.343Z,11.70
2022-09-11T05:11:51.940Z,11.70
2022-09-11T05:14:21.662Z,11.70
2022-09-11T05:16:52.862Z,11.60
2022-09-11T05:19:23.700Z,11.60
2022-09-11T05:21:51.689Z,11.60
2022-09-11T05:24:18.913Z,11.70
2022-09-11T05:26:46.199Z,11.70
2022-09-11T05:29:15.793Z,11.70
2022-09-11T05:32:01.347Z,11.80
2022-09-11T05:34:29.519Z,11.80
2022-09-11T05:36:58.145Z,11.90
2022-09-11T05:39:28.554Z,11.90
2022-09-11T05:41:56.718Z,11.90
2022-09-11T05:44:31.069Z,12.00
2022-09-11T05:46:59.410Z,12.00
2022-09-11T05:49:26.494Z,12.00
2022-09-11T05:51:53.687Z,12.10
2022-09-11T05:54:20.904Z,12.10
2022-09-11T05:56:48.327Z,12.20
2022-09-11T05:59:23.037Z,12.20
2022-09-11T06:01:51.513Z,12.30
2022-09-11T06:04:28.216Z,12.30
2022-09-11T06:06:57.863Z,12.30
2022-09-11T06:09:25.289Z,12.40
2022-09-11T06:11:53.437Z,12.40
2022-09-11T06:14:21.605Z,12.40
2022-09-11T06:16:50.579Z,12.40
2022-09-11T06:19:18.136Z,12.40
2022-09-11T06:21:47.888Z,12.50
2022-09-11T06:24:24.881Z,12.50
2022-09-11T06:26:52.381Z,12.50
2022-09-11T06:29:19.933Z,12.50
2022-09-11T06:31:51.565Z,12.50
2022-09-11T06:34:23.018Z,12.50
2022-09-11T06:36:52.352Z,12.50
2022-09-11T06:39:23.412Z,12.60
2022-09-11T06:41:53.352Z,12.60
2022-09-11T06:44:27.476Z,12.60
2022-09-11T06:46:59.491Z,12.60
2022-09-11T06:49:27.795Z,12.70
2022-09-11T06:52:13.526Z,12.70
2022-09-11T06:54:46.301Z,12.70
2022-09-11T06:57:26.434Z,12.70
2022-09-11T07:00:00.963Z,12.80
2022-09-11T07:02:59.888Z,12.80
2022-09-11T07:05:27.548Z,12.80
2022-09-11T07:07:56.432Z,12.90
2022-09-11T07:10:25.665Z,12.90
2022-09-11T07:12:58.103Z,12.90
2022-09-11T07:15:25.562Z,13.00
2022-09-11T07:17:53.302Z,13.00
2022-09-11T07:20:20.863Z,13.10
2022-09-11T07:22:48.525Z,13.10
2022-09-11T07:25:18.174Z,13.20
2022-09-11T07:27:47.136Z,13.30
2022-09-11T07:30:15.731Z,13.30
2022-09-11T07:32:45.738Z,13.40
2022-09-11T07:35:16.378Z,13.40
2022-09-11T07:37:45.796Z,13.50
2022-09-11T07:40:17.624Z,13.50
2022-09-11T07:42:45.948Z,13.60
2022-09-11T07:45:13.762Z,13.60
2022-09-11T07:47:48.936Z,13.70
2022-09-11T07:50:18.246Z,13.70
2022-09-11T07:52:48.763Z,13.60
2022-09-11T07:55:21.085Z,13.70
2022-09-11T07:58:04.571Z,13.70
2022-09-11T08:00:37.185Z,13.70
2022-09-11T08:03:15.267Z,13.80
2022-09-11T08:05:42.859Z,13.80
2022-09-11T08:08:12.318Z,13.80
2022-09-11T08:10:43.147Z,13.80
2022-09-11T08:13:11.221Z,13.90
2022-09-11T08:15:38.661Z,14.00
2022-09-11T08:18:07.956Z,14.00
2022-09-11T08:20:35.333Z,14.00
2022-09-11T08:23:02.868Z,14.10
2022-09-11T08:25:30.005Z,14.10
2022-09-11T08:27:59.895Z,14.10
2022-09-11T08:30:28.360Z,14.10
2022-09-11T08:32:58.663Z,14.00
2022-09-11T08:35:27.359Z,14.00
2022-09-11T08:37:58.791Z,14.00
2022-09-11T08:40:30.350Z,14.00
2022-09-11T08:43:03.813Z,13.90
2022-09-11T08:45:35.501Z,13.80
2022-09-11T08:48:07.319Z,13.70
2022-09-11T08:50:42.370Z,13.70
2022-09-11T08:53:18.972Z,13.60
2022-09-11T08:55:55.445Z,13.60
2022-09-11T08:58:47.582Z,13.60
2022-09-11T09:02:00.407Z,13.60
2022-09-11T09:04:41.465Z,13.70
2022-09-11T09:07:28.619Z,13.70
2022-09-11T09:10:20.121Z,13.80
2022-09-11T09:12:59.949Z,13.90
2022-09-11T09:16:10.426Z,14.00
2022-09-11T09:18:53.322Z,14.00
2022-09-11T09:21:37.563Z,14.10
2022-09-11T09:24:20.743Z,14.10
2022-09-11T09:26:54.985Z,14.20
2022-09-11T09:29:27.430Z,14.30
2022-09-11T09:32:02.080Z,14.40
2022-09-11T09:34:35.280Z,14.50
2022-09-11T09:37:15.305Z,14.50
2022-09-11T09:39:43.858Z,14.60
2022-09-11T09:42:34.698Z,14.60
2022-09-11T09:45:19.381Z,14.60
2022-09-11T09:47:49.145Z,14.60
2022-09-11T09:50:29.659Z,14.70
2022-09-11T09:53:23.821Z,14.70
2022-09-11T09:55:53.380Z,14.70
2022-09-11T09:58:29.030Z,14.90
2022-09-11T10:00:57.168Z,14.90
2022-09-11T10:03:25.727Z,15.00
2022-09-11T10:05:54.826Z,15.10
2022-09-11T10:08:31.490Z,15.20
2022-09-11T10:11:02.213Z,15.30
2022-09-11T10:13:34.920Z,15.40
2022-09-11T10:16:04.311Z,15.40
2022-09-11T10:18:45.324Z,15.50
2022-09-11T10:21:14.758Z,15.60
2022-09-11T10:23:52.711Z,15.60
2022-09-11T10:26:31.377Z,15.60
2022-09-11T10:29:19.263Z,15.70
2022-09-11T10:31:52.898Z,15.70
2022-09-11T10:34:22.459Z,15.70
2022-09-11T10:36:57.277Z,15.70
2022-09-11T10:39:32.845Z,15.70
2022-09-11T10:42:25.643Z,15.70
2022-09-11T10:44:57.610Z,15.70
2022-09-11T10:47:32.824Z,15.60
2022-09-11T10:50:25.327Z,15.60
2022-09-11T10:52:58.776Z,15.60
2022-09-11T10:55:30.988Z,15.70
2022-09-11T10:58:05.653Z,15.80
2022-09-11T11:00:36.013Z,15.80
2022-09-11T11:03:27.221Z,15.80
2022-09-11T11:06:25.917Z,15.90
2022-09-11T11:09:20.550Z,15.90
2022-09-11T11:12:15.163Z,16.00
2022-09-11T11:15:07.338Z,16.00
2022-09-11T11:17:51.314Z,16.00
2022-09-11T11:20:49.219Z,16.10
2022-09-11T11:23:43.760Z,16.10
2022-09-11T11:26:32.949Z,16.10
2022-09-11T11:29:28.945Z,16.10
2022-09-11T11:32:38.090Z,16.20
2022-09-11T11:35:57.964Z,16.30
2022-09-11T11:39:01.619Z,16.30
2022-09-11T11:41:36.643Z,16.30
2022-09-11T11:44:26.026Z,16.30
2022-09-11T11:47:05.789Z,16.40
2022-09-11T11:50:35.291Z,16.40
2022-09-11T11:53:28.749Z,16.50
2022-09-11T11:56:09.584Z,16.50
2022-09-11T11:58:58.152Z,16.70
2022-09-11T12:01:42.971Z,16.70
2022-09-11T12:04:35.130Z,16.80
2022-09-11T12:07:04.586Z,16.80
2022-09-11T12:09:33.846Z,16.80
2022-09-11T12:12:06.386Z,16.90
2022-09-11T12:14:34.427Z,16.90
2022-09-11T12:17:28.746Z,17.00
2022-09-11T12:20:11.057Z,17.10
2022-09-11T12:22:49.811Z,17.20
2022-09-11T12:25:20.069Z,17.30
2022-09-11T12:27:48.902Z,17.50
2022-09-11T12:30:20.415Z,17.60
2022-09-11T12:32:49.875Z,17.60
2022-09-11T12:35:32.162Z,17.60
2022-09-11T12:38:09.332Z,17.50
2022-09-11T12:40:48.833Z,17.40
2022-09-11T12:43:34.838Z,17.30
2022-09-11T12:46:11.792Z,17.20
2022-09-11T12:48:42.011Z,17.20
2022-09-11T12:51:21.059Z,17.10
2022-09-11T12:53:53.079Z,17.10
2022-09-11T12:56:23.665Z,17.10
2022-09-11T12:59:00.540Z,17.00
2022-09-11T13:02:08.994Z,16.90
2022-09-11T13:05:05.975Z,16.90
2022-09-11T13:07:46.827Z,16.90
2022-09-11T13:10:33.702Z,16.80
2022-09-11T13:13:34.669Z,16.80
2022-09-11T13:16:24.567Z,16.70
2022-09-11T13:19:31.528Z,16.70
2022-09-11T13:25:45.446Z,16.70
2022-09-11T13:28:36.921Z,16.70
2022-09-11T13:40:00.020Z,16.60
2022-09-11T13:42:33.933Z,16.70
2022-09-11T13:48:49.399Z,16.70
2022-09-11T13:51:24.440Z,16.70
2022-09-11T13:54:28.872Z,16.70
2022-09-11T14:04:49.157Z,16.80
2022-09-11T14:07:46.341Z,16.90
2022-09-11T14:14:24.159Z,17.00
2022-09-11T14:20:47.064Z,17.10
2022-09-11T14:23:54.208Z,17.10
2022-09-11T14:26:52.022Z,17.10
2022-09-11T14:29:39.257Z,17.10
2022-09-11T14:36:11.071Z,17.20
2022-09-11T14:38:44.497Z,17.20
2022-09-11T14:41:13.656Z,17.20
2022-09-11T14:43:44.761Z,17.10
2022-09-11T14:46:13.912Z,17.10
2022-09-11T14:48:44.120Z,17.20
2022-09-11T14:58:39.967Z,17.20
2022-09-11T15:01:13.661Z,17.20
2022-09-11T15:03:41.522Z,17.10
2022-09-11T15:06:20.624Z,17.10
2022-09-11T15:08:47.965Z,17.10
2022-09-11T15:11:15.975Z,17.00
2022-09-11T15:14:04.328Z,17.00
2022-09-11T15:16:32.246Z,17.00
2022-09-11T15:18:59.509Z,17.00
2022-09-11T15:33:00.774Z,16.80
2022-09-11T15:35:32.624Z,16.80
2022-09-11T15:38:05.634Z,16.80
2022-09-11T15:40:35.662Z,16.80
2022-09-11T15:43:03.088Z,16.80
2022-09-11T15:45:31.660Z,16.70
2022-09-11T15:47:59.446Z,16.70
2022-09-11T15:50:30.237Z,16.70
2022-09-11T15:52:58.044Z,16.70
2022-09-11T15:55:27.432Z,16.70
2022-09-11T15:57:54.753Z,16.70
2022-09-11T16:00:22.100Z,16.60
2022-09-11T16:02:52.735Z,16.60
2022-09-11T16:05:21.710Z,16.50
2022-09-11T16:07:49.752Z,16.50
2022-09-11T16:10:17.208Z,16.50
2022-09-11T16:12:46.474Z,16.50
2022-09-11T16:15:13.870Z,16.50
2022-09-11T16:17:41.185Z,16.50
2022-09-11T16:20:08.960Z,16.50
2022-09-11T16:22:36.356Z,16.40
2022-09-11T16:25:03.796Z,16.40
2022-09-11T16:27:31.045Z,16.40
2022-09-11T16:32:46.254Z,16.30
2022-09-11T16:35:14.367Z,16.30
2022-09-11T16:37:41.756Z,16.40
2022-09-11T16:40:09.897Z,16.40
2022-09-11T16:42:38.022Z,16.30
2022-09-11T16:45:06.101Z,16.30
2022-09-11T16:47:33.520Z,16.40
2022-09-11T16:50:07.341Z,16.40
2022-09-11T16:52:36.630Z,16.40
2022-09-11T16:55:05.764Z,16.30
2022-09-11T16:57:33.740Z,16.30
2022-09-11T17:00:01.163Z,16.30
2022-09-11T17:02:28.471Z,16.40
2022-09-11T17:04:55.764Z,16.40
2022-09-11T17:07:23.890Z,16.40
2022-09-11T17:09:51.087Z,16.40
2022-09-11T17:12:18.278Z,16.40
2022-09-11T17:14:45.389Z,16.40
2022-09-11T17:17:12.683Z,16.30
2022-09-11T17:19:39.836Z,16.30
2022-09-11T17:22:08.557Z,16.30
2022-09-11T17:24:35.972Z,16.30
2022-09-11T17:27:03.734Z,16.20
2022-09-11T17:29:30.891Z,16.20
2022-09-11T17:32:23.841Z,16.10
2022-09-11T17:34:47.062Z,16.10
2022-09-11T17:37:15.087Z,16.10
2022-09-11T17:39:42.864Z,16.00
2022-09-11T17:42:13.417Z,16.00
2022-09-11T17:44:55.167Z,15.90
2022-09-11T17:47:26.400Z,15.90
2022-09-11T17:49:54.083Z,15.90
2022-09-11T17:52:46.685Z,15.90
2022-09-11T17:55:13.972Z,15.80
2022-09-11T17:57:44.374Z,15.80
2022-09-11T18:00:13.594Z,15.70
2022-09-11T18:02:41.435Z,15.70
2022-09-11T18:05:08.905Z,15.70
2022-09-11T18:07:36.340Z,15.70
2022-09-11T18:10:04.101Z,15.70
2022-09-11T18:12:35.475Z,15.70
2022-09-11T18:15:03.953Z,15.70
2022-09-11T18:17:31.241Z,15.60
2022-09-11T18:19:58.965Z,15.60
2022-09-11T18:22:29.836Z,15.60
2022-09-11T18:24:59.856Z,15.60
2022-09-11T18:27:29.923Z,15.60
2022-09-11T18:29:57.431Z,15.50
2022-09-11T18:32:24.760Z,15.50
2022-09-11T18:35:01.586Z,15.50
2022-09-11T18:37:29.517Z,15.50
2022-09-11T18:40:11.335Z,15.50
2022-09-11T18:46:06.519Z,15.50
2022-09-11T18:48:37.495Z,15.50
2022-09-11T18:51:23.798Z,15.50
2022-09-11T18:54:04.769Z,15.50
2022-09-11T18:56:36.489Z,15.50
2022-09-11T19:02:19.871Z,15.50
2022-09-11T19:04:51.282Z,15.50
2022-09-11T19:07:24.812Z,15.50
2022-09-11T19:10:13.734Z,15.50
2022-09-11T19:12:43.758Z,15.50
2022-09-11T19:15:16.466Z,15.50
2022-09-11T19:17:49.326Z,15.50
2022-09-11T19:20:19.903Z,15.40
2022-09-11T19:22:47.628Z,15.40
2022-09-11T19:25:15.670Z,15.40
2022-09-11T19:27:46.504Z,15.40
2022-09-11T19:30:23.059Z,15.40
2022-09-11T19:32:53.983Z,15.40
2022-09-11T19:39:29.389Z,15.40
2022-09-11T19:42:13.706Z,15.40
2022-09-11T19:44:47.605Z,15.40
2022-09-11T19:47:17.277Z,15.40
2022-09-11T19:49:47.398Z,15.40
2022-09-11T19:52:15.991Z,15.30
2022-09-11T19:54:43.257Z,15.40
2022-09-11T19:57:14.085Z,15.40
2022-09-11T19:59:43.720Z,15.30
2022-09-11T20:02:11.927Z,15.30
2022-09-11T20:04:42.235Z,15.30
2022-09-11T20:07:09.893Z,15.30
2022-09-11T20:09:38.687Z,15.30
2022-09-11T20:12:10.181Z,15.30
2022-09-11T20:15:03.686Z,15.30
2022-09-11T20:17:31.416Z,15.30
2022-09-11T20:20:01.969Z,15.30
2022-09-11T20:22:30.184Z,15.30
2022-09-11T20:24:58.168Z,15.30
2022-09-11T20:27:26.455Z,15.30
2022-09-11T20:29:57.351Z,15.30
2022-09-11T20:32:24.774Z,15.30
2022-09-11T20:34:51.947Z,15.30
2022-09-11T20:37:22.697Z,15.30
2022-09-11T20:39:52.889Z,15.30
2022-09-11T20:42:20.376Z,15.30
2022-09-11T20:44:49.130Z,15.30
2022-09-11T20:47:16.416Z,15.30
2022-09-11T20:49:43.816Z,15.30
2022-09-11T20:52:13.495Z,15.30
2022-09-11T20:55:06.103Z,15.30
2022-09-11T20:57:40.236Z,15.30
2022-09-11T21:00:10.019Z,15.30
2022-09-11T21:02:37.205Z,15.30
2022-09-11T21:05:05.071Z,15.30
2022-09-11T21:07:35.153Z,15.30
2022-09-11T21:34:35.301Z,15.30
2022-09-11T21:37:02.965Z,15.30
2022-09-11T22:02:58.536Z,15.20
2022-09-11T22:05:46.104Z,15.20
2022-09-11T22:08:21.656Z,15.20
2022-09-11T22:10:51.122Z,15.20
2022-09-11T22:13:19.738Z,15.20
2022-09-11T22:15:49.522Z,15.10
2022-09-11T22:18:17.989Z,15.10
2022-09-11T22:20:46.207Z,15.00
2022-09-11T22:23:21.864Z,15.00
2022-09-11T22:25:56.990Z,15.00
2022-09-11T22:28:24.258Z,15.00
2022-09-11T22:30:51.491Z,15.00
2022-09-11T22:33:19.513Z,15.00
2022-09-11T22:35:49.519Z,15.00
2022-09-11T22:38:16.989Z,14.90
2022-09-11T22:40:44.199Z,14.90
2022-09-11T22:43:11.391Z,14.90
2022-09-11T22:45:38.898Z,14.90
2022-09-11T22:48:06.065Z,14.80
2022-09-11T22:50:33.757Z,14.80
2022-09-11T22:53:00.985Z,14.80
2022-09-11T22:55:28.279Z,14.80
2022-09-11T22:57:55.392Z,14.80
2022-09-11T23:00:22.604Z,14.80
2022-09-11T23:02:49.750Z,14.80
2022-09-11T23:05:37.504Z,14.80
2022-09-11T23:08:04.777Z,14.80
2022-09-11T23:10:31.919Z,14.80
2022-09-11T23:12:59.104Z,14.80
2022-09-11T23:15:27.545Z,14.70
2022-09-11T23:17:55.259Z,14.70
2022-09-11T23:20:22.429Z,14.70
2022-09-11T23:22:49.612Z,14.70
2022-09-11T23:25:16.762Z,14.60
2022-09-11T23:27:44.865Z,14.60
2022-09-11T23:30:12.190Z,14.60
2022-09-11T23:32:41.897Z,14.60
2022-09-11T23:35:09.990Z,14.60
2022-09-11T23:37:38.697Z,14.60
2022-09-11T23:40:09.206Z,14.60
2022-09-11T23:42:36.351Z,14.60
2022-09-11T23:45:04.958Z,14.60
2022-09-11T23:47:32.123Z,14.60
2022-09-11T23:49:59.358Z,14.60
2022-09-11T23:52:26.695Z,14.60
2022-09-11T23:54:53.849Z,14.60
2022-09-11T23:57:20.991Z,14.60
2022-09-11T23:59:48.185Z,14.60
